sensor_id;sensor_type;location;lat;lon;timestamp;P1;durP1;ratioP1;P2;durP2;ratioP2
76593;SDS011;65482;50.240;14.302;2023-03-11T00:00:21;2.40;;;1.20;;
76593;SDS011;65482;50.240;14.302;2023-03-11T00:03:07;1.88;;;1.17;;
76593;SDS011;65482;50.240;14.302;2023-03-11T00:05:34;3.20;;;1.20;;
76593;SDS011;65482;50.240;14.302;2023-03-11T00:08:02;2.75;;;0.85;;
76593;SDS011;65482;50.240;14.302;2023-03-11T00:10:30;1.48;;;0.63;;
76593;SDS011;65482;50.240;14.302;2023-03-11T00:12:58;0.60;;;0.60;;
76593;SDS011;65482;50.240;14.302;2023-03-11T00:15:25;1.15;;;0.68;;
76593;SDS011;65482;50.240;14.302;2023-03-11T00:17:51;0.82;;;0.60;;
76593;SDS011;65482;50.240;14.302;2023-03-11T00:20:23;1.02;;;0.80;;
76593;SDS011;65482;50.240;14.302;2023-03-11T00:22:51;1.88;;;1.30;;
76593;SDS011;65482;50.240;14.302;2023-03-11T00:25:17;1.60;;;1.15;;
76593;SDS011;65482;50.240;14.302;2023-03-11T00:27:43;2.08;;;1.38;;
76593;SDS011;65482;50.240;14.302;2023-03-11T00:30:09;1.95;;;1.40;;
76593;SDS011;65482;50.240;14.302;2023-03-11T00:32:36;1.73;;;1.40;;
76593;SDS011;65482;50.240;14.302;2023-03-11T00:35:01;1.58;;;1.35;;
76593;SDS011;65482;50.240;14.302;2023-03-11T00:37:27;1.40;;;1.30;;
76593;SDS011;65482;50.240;14.302;2023-03-11T00:39:53;2.17;;;1.80;;
76593;SDS011;65482;50.240;14.302;2023-03-11T00:42:18;2.08;;;1.63;;
76593;SDS011;65482;50.240;14.302;2023-03-11T00:44:44;1.70;;;1.52;;
76593;SDS011;65482;50.240;14.302;2023-03-11T00:47:11;1.65;;;1.30;;
76593;SDS011;65482;50.240;14.302;2023-03-11T00:49:36;1.85;;;1.42;;
76593;SDS011;65482;50.240;14.302;2023-03-11T00:52:02;1.73;;;1.45;;
76593;SDS011;65482;50.240;14.302;2023-03-11T00:54:28;2.33;;;1.50;;
76593;SDS011;65482;50.240;14.302;2023-03-11T00:56:54;1.58;;;1.20;;
76593;SDS011;65482;50.240;14.302;2023-03-11T00:59:20;1.30;;;1.20;;
76593;SDS011;65482;50.240;14.302;2023-03-11T01:01:46;2.47;;;1.50;;
76593;SDS011;65482;50.240;14.302;2023-03-11T01:04:12;2.38;;;1.50;;
76593;SDS011;65482;50.240;14.302;2023-03-11T01:06:37;2.17;;;1.45;;
76593;SDS011;65482;50.240;14.302;2023-03-11T01:09:03;2.10;;;1.60;;
76593;SDS011;65482;50.240;14.302;2023-03-11T01:11:29;3.03;;;1.50;;
76593;SDS011;65482;50.240;14.302;2023-03-11T01:13:54;1.48;;;1.30;;
76593;SDS011;65482;50.240;14.302;2023-03-11T01:16:20;1.45;;;1.20;;
76593;SDS011;65482;50.240;14.302;2023-03-11T01:18:46;1.73;;;1.20;;
76593;SDS011;65482;50.240;14.302;2023-03-11T01:21:12;1.55;;;1.08;;
76593;SDS011;65482;50.240;14.302;2023-03-11T01:23:37;1.20;;;0.93;;
76593;SDS011;65482;50.240;14.302;2023-03-11T01:26:04;1.45;;;1.13;;
76593;SDS011;65482;50.240;14.302;2023-03-11T01:28:30;1.30;;;1.13;;
76593;SDS011;65482;50.240;14.302;2023-03-11T01:30:55;4.65;;;1.30;;
76593;SDS011;65482;50.240;14.302;2023-03-11T01:33:21;1.48;;;1.10;;
76593;SDS011;65482;50.240;14.302;2023-03-11T01:35:47;1.77;;;1.08;;
76593;SDS011;65482;50.240;14.302;2023-03-11T01:38:13;1.17;;;1.05;;
76593;SDS011;65482;50.240;14.302;2023-03-11T01:40:42;1.20;;;1.00;;
76593;SDS011;65482;50.240;14.302;2023-03-11T01:46:11;1.13;;;1.02;;
76593;SDS011;65482;50.240;14.302;2023-03-11T01:48:38;1.17;;;1.00;;
76593;SDS011;65482;50.240;14.302;2023-03-11T01:51:04;2.40;;;1.30;;
76593;SDS011;65482;50.240;14.302;2023-03-11T01:53:31;1.52;;;1.17;;
76593;SDS011;65482;50.240;14.302;2023-03-11T01:55:58;1.65;;;1.20;;
76593;SDS011;65482;50.240;14.302;2023-03-11T01:58:26;1.83;;;1.40;;
76593;SDS011;65482;50.240;14.302;2023-03-11T02:00:55;1.80;;;1.20;;
76593;SDS011;65482;50.240;14.302;2023-03-11T02:03:28;1.52;;;1.23;;
76593;SDS011;65482;50.240;14.302;2023-03-11T02:05:56;1.33;;;1.08;;
76593;SDS011;65482;50.240;14.302;2023-03-11T02:08:25;1.90;;;1.30;;
76593;SDS011;65482;50.240;14.302;2023-03-11T02:10:51;2.42;;;1.13;;
76593;SDS011;65482;50.240;14.302;2023-03-11T02:13:17;1.40;;;1.10;;
76593;SDS011;65482;50.240;14.302;2023-03-11T02:15:44;1.20;;;1.00;;
76593;SDS011;65482;50.240;14.302;2023-03-11T02:18:10;1.67;;;1.08;;
76593;SDS011;65482;50.240;14.302;2023-03-11T02:20:53;1.83;;;1.05;;
76593;SDS011;65482;50.240;14.302;2023-03-11T02:23:24;1.50;;;0.93;;
76593;SDS011;65482;50.240;14.302;2023-03-11T02:28:43;1.38;;;1.02;;
76593;SDS011;65482;50.240;14.302;2023-03-11T02:31:11;1.20;;;0.93;;
76593;SDS011;65482;50.240;14.302;2023-03-11T02:33:37;1.17;;;0.80;;
76593;SDS011;65482;50.240;14.302;2023-03-11T02:36:03;1.10;;;0.90;;
76593;SDS011;65482;50.240;14.302;2023-03-11T02:38:29;1.50;;;1.02;;
76593;SDS011;65482;50.240;14.302;2023-03-11T02:40:56;1.50;;;1.08;;
76593;SDS011;65482;50.240;14.302;2023-03-11T02:46:06;1.30;;;0.90;;
76593;SDS011;65482;50.240;14.302;2023-03-11T02:48:34;0.77;;;0.77;;
76593;SDS011;65482;50.240;14.302;2023-03-11T02:51:01;2.78;;;1.10;;
76593;SDS011;65482;50.240;14.302;2023-03-11T02:53:27;1.42;;;1.10;;
76593;SDS011;65482;50.240;14.302;2023-03-11T02:55:56;1.63;;;1.17;;
76593;SDS011;65482;50.240;14.302;2023-03-11T02:58:21;1.63;;;0.98;;
76593;SDS011;65482;50.240;14.302;2023-03-11T03:00:47;7.53;;;0.88;;
76593;SDS011;65482;50.240;14.302;2023-03-11T03:03:12;1.33;;;0.80;;
76593;SDS011;65482;50.240;14.302;2023-03-11T03:05:38;1.35;;;0.90;;
76593;SDS011;65482;50.240;14.302;2023-03-11T03:08:04;1.25;;;1.00;;
76593;SDS011;65482;50.240;14.302;2023-03-11T03:10:30;1.17;;;0.88;;
76593;SDS011;65482;50.240;14.302;2023-03-11T03:12:55;2.30;;;0.88;;
76593;SDS011;65482;50.240;14.302;2023-03-11T03:15:21;1.27;;;0.90;;
76593;SDS011;65482;50.240;14.302;2023-03-11T03:17:46;1.27;;;0.82;;
76593;SDS011;65482;50.240;14.302;2023-03-11T03:20:12;1.02;;;0.80;;
76593;SDS011;65482;50.240;14.302;2023-03-11T03:22:39;2.78;;;0.90;;
76593;SDS011;65482;50.240;14.302;2023-03-11T03:25:07;1.73;;;0.95;;
76593;SDS011;65482;50.240;14.302;2023-03-11T03:27:32;0.80;;;0.73;;
76593;SDS011;65482;50.240;14.302;2023-03-11T03:29:59;1.02;;;0.80;;
76593;SDS011;65482;50.240;14.302;2023-03-11T03:32:24;2.00;;;0.80;;
76593;SDS011;65482;50.240;14.302;2023-03-11T03:34:50;1.05;;;0.85;;
76593;SDS011;65482;50.240;14.302;2023-03-11T03:37:22;1.75;;;0.88;;
76593;SDS011;65482;50.240;14.302;2023-03-11T03:39:48;1.35;;;0.80;;
76593;SDS011;65482;50.240;14.302;2023-03-11T03:42:13;1.10;;;0.90;;
76593;SDS011;65482;50.240;14.302;2023-03-11T03:44:39;1.13;;;0.90;;
76593;SDS011;65482;50.240;14.302;2023-03-11T03:47:04;0.80;;;0.80;;
76593;SDS011;65482;50.240;14.302;2023-03-11T03:49:30;0.95;;;0.70;;
76593;SDS011;65482;50.240;14.302;2023-03-11T03:51:55;0.85;;;0.82;;
76593;SDS011;65482;50.240;14.302;2023-03-11T03:54:21;6.78;;;0.90;;
76593;SDS011;65482;50.240;14.302;2023-03-11T03:56:46;0.88;;;0.73;;
76593;SDS011;65482;50.240;14.302;2023-03-11T03:59:12;1.30;;;1.00;;
76593;SDS011;65482;50.240;14.302;2023-03-11T04:01:37;1.02;;;0.90;;
76593;SDS011;65482;50.240;14.302;2023-03-11T04:04:03;1.55;;;0.90;;
76593;SDS011;65482;50.240;14.302;2023-03-11T04:06:29;1.50;;;1.00;;
76593;SDS011;65482;50.240;14.302;2023-03-11T04:08:54;1.10;;;0.80;;
76593;SDS011;65482;50.240;14.302;2023-03-11T04:11:20;2.03;;;1.00;;
76593;SDS011;65482;50.240;14.302;2023-03-11T04:13:46;1.42;;;1.02;;
76593;SDS011;65482;50.240;14.302;2023-03-11T04:16:14;2.65;;;1.00;;
76593;SDS011;65482;50.240;14.302;2023-03-11T04:18:42;1.90;;;1.00;;
76593;SDS011;65482;50.240;14.302;2023-03-11T04:21:08;1.50;;;1.13;;
76593;SDS011;65482;50.240;14.302;2023-03-11T04:23:34;3.03;;;1.10;;
76593;SDS011;65482;50.240;14.302;2023-03-11T04:25:59;1.75;;;0.90;;
76593;SDS011;65482;50.240;14.302;2023-03-11T04:28:25;1.50;;;1.02;;
76593;SDS011;65482;50.240;14.302;2023-03-11T04:30:51;1.55;;;0.88;;
76593;SDS011;65482;50.240;14.302;2023-03-11T04:33:16;2.15;;;0.90;;
76593;SDS011;65482;50.240;14.302;2023-03-11T04:35:42;2.35;;;1.10;;
76593;SDS011;65482;50.240;14.302;2023-03-11T04:38:08;1.50;;;1.02;;
76593;SDS011;65482;50.240;14.302;2023-03-11T04:40:33;2.90;;;1.25;;
76593;SDS011;65482;50.240;14.302;2023-03-11T04:42:59;2.65;;;1.15;;
76593;SDS011;65482;50.240;14.302;2023-03-11T04:45:25;1.40;;;1.00;;
76593;SDS011;65482;50.240;14.302;2023-03-11T04:47:51;1.88;;;1.10;;
76593;SDS011;65482;50.240;14.302;2023-03-11T04:50:16;1.25;;;1.02;;
76593;SDS011;65482;50.240;14.302;2023-03-11T04:52:43;2.40;;;1.10;;
76593;SDS011;65482;50.240;14.302;2023-03-11T04:55:09;1.30;;;1.08;;
76593;SDS011;65482;50.240;14.302;2023-03-11T04:57:35;1.30;;;1.10;;
76593;SDS011;65482;50.240;14.302;2023-03-11T05:00:02;1.50;;;1.00;;
76593;SDS011;65482;50.240;14.302;2023-03-11T05:02:32;1.20;;;0.90;;
76593;SDS011;65482;50.240;14.302;2023-03-11T05:04:58;1.67;;;1.10;;
76593;SDS011;65482;50.240;14.302;2023-03-11T05:07:23;1.38;;;1.02;;
76593;SDS011;65482;50.240;14.302;2023-03-11T05:09:49;1.83;;;1.20;;
76593;SDS011;65482;50.240;14.302;2023-03-11T05:12:15;1.55;;;1.08;;
76593;SDS011;65482;50.240;14.302;2023-03-11T05:14:40;1.60;;;1.15;;
76593;SDS011;65482;50.240;14.302;2023-03-11T05:17:06;2.25;;;1.30;;
76593;SDS011;65482;50.240;14.302;2023-03-11T05:19:31;1.17;;;1.05;;
76593;SDS011;65482;50.240;14.302;2023-03-11T05:22:00;1.15;;;1.00;;
76593;SDS011;65482;50.240;14.302;2023-03-11T05:24:27;1.60;;;1.00;;
76593;SDS011;65482;50.240;14.302;2023-03-11T05:26:53;1.80;;;1.17;;
76593;SDS011;65482;50.240;14.302;2023-03-11T05:29:19;1.75;;;1.00;;
76593;SDS011;65482;50.240;14.302;2023-03-11T05:31:45;1.30;;;1.20;;
76593;SDS011;65482;50.240;14.302;2023-03-11T05:34:11;1.15;;;1.05;;
76593;SDS011;65482;50.240;14.302;2023-03-11T05:36:37;1.70;;;1.05;;
76593;SDS011;65482;50.240;14.302;2023-03-11T05:39:03;1.80;;;1.10;;
76593;SDS011;65482;50.240;14.302;2023-03-11T05:41:29;1.17;;;0.93;;
76593;SDS011;65482;50.240;14.302;2023-03-11T05:43:54;1.42;;;1.00;;
76593;SDS011;65482;50.240;14.302;2023-03-11T05:46:20;2.42;;;1.20;;
76593;SDS011;65482;50.240;14.302;2023-03-11T05:48:45;1.13;;;0.90;;
76593;SDS011;65482;50.240;14.302;2023-03-11T05:51:11;3.88;;;1.20;;
76593;SDS011;65482;50.240;14.302;2023-03-11T05:53:37;4.68;;;1.25;;
76593;SDS011;65482;50.240;14.302;2023-03-11T05:56:03;1.92;;;1.10;;
76593;SDS011;65482;50.240;14.302;2023-03-11T05:58:30;1.83;;;1.20;;
76593;SDS011;65482;50.240;14.302;2023-03-11T06:00:56;1.83;;;1.20;;
76593;SDS011;65482;50.240;14.302;2023-03-11T06:03:24;1.73;;;1.10;;
76593;SDS011;65482;50.240;14.302;2023-03-11T06:05:51;0.93;;;0.82;;
76593;SDS011;65482;50.240;14.302;2023-03-11T06:08:17;1.45;;;1.00;;
76593;SDS011;65482;50.240;14.302;2023-03-11T06:10:44;1.50;;;1.08;;
76593;SDS011;65482;50.240;14.302;2023-03-11T06:13:10;1.42;;;1.00;;
76593;SDS011;65482;50.240;14.302;2023-03-11T06:15:36;1.50;;;0.95;;
76593;SDS011;65482;50.240;14.302;2023-03-11T06:18:02;1.90;;;1.20;;
76593;SDS011;65482;50.240;14.302;2023-03-11T06:20:28;1.40;;;1.00;;
76593;SDS011;65482;50.240;14.302;2023-03-11T06:22:54;2.05;;;1.20;;
76593;SDS011;65482;50.240;14.302;2023-03-11T06:25:20;1.23;;;1.08;;
76593;SDS011;65482;50.240;14.302;2023-03-11T06:27:51;2.28;;;1.20;;
76593;SDS011;65482;50.240;14.302;2023-03-11T06:30:18;2.15;;;1.50;;
76593;SDS011;65482;50.240;14.302;2023-03-11T06:32:44;2.95;;;1.20;;
76593;SDS011;65482;50.240;14.302;2023-03-11T06:35:11;2.88;;;1.40;;
76593;SDS011;65482;50.240;14.302;2023-03-11T06:37:36;2.13;;;1.20;;
76593;SDS011;65482;50.240;14.302;2023-03-11T06:40:03;2.22;;;1.35;;
76593;SDS011;65482;50.240;14.302;2023-03-11T06:42:31;1.83;;;1.30;;
76593;SDS011;65482;50.240;14.302;2023-03-11T06:44:57;5.70;;;1.50;;
76593;SDS011;65482;50.240;14.302;2023-03-11T06:47:22;2.00;;;1.45;;
76593;SDS011;65482;50.240;14.302;2023-03-11T06:49:51;2.22;;;1.67;;
76593;SDS011;65482;50.240;14.302;2023-03-11T06:52:17;2.17;;;1.48;;
76593;SDS011;65482;50.240;14.302;2023-03-11T06:54:44;3.55;;;1.70;;
76593;SDS011;65482;50.240;14.302;2023-03-11T06:57:09;2.00;;;1.42;;
76593;SDS011;65482;50.240;14.302;2023-03-11T06:59:36;2.10;;;1.50;;
76593;SDS011;65482;50.240;14.302;2023-03-11T07:02:03;1.50;;;1.25;;
76593;SDS011;65482;50.240;14.302;2023-03-11T07:04:30;2.10;;;1.40;;
76593;SDS011;65482;50.240;14.302;2023-03-11T07:06:56;3.25;;;1.40;;
76593;SDS011;65482;50.240;14.302;2023-03-11T07:09:23;2.50;;;1.60;;
76593;SDS011;65482;50.240;14.302;2023-03-11T07:11:50;2.88;;;1.70;;
76593;SDS011;65482;50.240;14.302;2023-03-11T07:14:17;2.85;;;1.50;;
76593;SDS011;65482;50.240;14.302;2023-03-11T07:16:43;3.17;;;2.00;;
76593;SDS011;65482;50.240;14.302;2023-03-11T07:19:10;2.38;;;1.85;;
76593;SDS011;65482;50.240;14.302;2023-03-11T07:21:36;4.20;;;1.60;;
76593;SDS011;65482;50.240;14.302;2023-03-11T07:24:02;3.03;;;2.30;;
76593;SDS011;65482;50.240;14.302;2023-03-11T07:26:29;4.68;;;2.72;;
76593;SDS011;65482;50.240;14.302;2023-03-11T07:28:56;4.95;;;2.53;;
76593;SDS011;65482;50.240;14.302;2023-03-11T07:31:23;3.70;;;2.65;;
76593;SDS011;65482;50.240;14.302;2023-03-11T07:33:51;3.88;;;2.72;;
76593;SDS011;65482;50.240;14.302;2023-03-11T07:36:17;4.25;;;2.95;;
76593;SDS011;65482;50.240;14.302;2023-03-11T07:38:46;5.85;;;4.57;;
76593;SDS011;65482;50.240;14.302;2023-03-11T07:41:12;4.28;;;2.90;;
76593;SDS011;65482;50.240;14.302;2023-03-11T07:43:39;3.85;;;2.80;;
76593;SDS011;65482;50.240;14.302;2023-03-11T07:46:12;5.30;;;3.35;;
76593;SDS011;65482;50.240;14.302;2023-03-11T07:48:41;6.30;;;3.05;;
76593;SDS011;65482;50.240;14.302;2023-03-11T07:51:09;4.28;;;2.85;;
76593;SDS011;65482;50.240;14.302;2023-03-11T07:53:40;4.78;;;3.20;;
76593;SDS011;65482;50.240;14.302;2023-03-11T07:56:07;4.28;;;3.35;;
76593;SDS011;65482;50.240;14.302;2023-03-11T07:58:35;4.90;;;3.40;;
76593;SDS011;65482;50.240;14.302;2023-03-11T08:01:04;4.50;;;3.10;;
76593;SDS011;65482;50.240;14.302;2023-03-11T08:03:32;5.95;;;3.05;;
76593;SDS011;65482;50.240;14.302;2023-03-11T08:05:59;8.10;;;3.10;;
76593;SDS011;65482;50.240;14.302;2023-03-11T08:08:25;5.35;;;3.20;;
76593;SDS011;65482;50.240;14.302;2023-03-11T08:10:51;5.65;;;3.15;;
76593;SDS011;65482;50.240;14.302;2023-03-11T08:13:17;4.25;;;2.90;;
76593;SDS011;65482;50.240;14.302;2023-03-11T08:15:42;5.88;;;3.10;;
76593;SDS011;65482;50.240;14.302;2023-03-11T08:18:08;5.00;;;3.00;;
76593;SDS011;65482;50.240;14.302;2023-03-11T08:20:35;4.82;;;3.20;;
76593;SDS011;65482;50.240;14.302;2023-03-11T08:23:02;4.85;;;3.17;;
76593;SDS011;65482;50.240;14.302;2023-03-11T08:25:28;8.45;;;3.15;;
76593;SDS011;65482;50.240;14.302;2023-03-11T08:27:54;5.28;;;3.25;;
76593;SDS011;65482;50.240;14.302;2023-03-11T08:30:20;5.38;;;3.10;;
76593;SDS011;65482;50.240;14.302;2023-03-11T08:32:46;4.55;;;3.20;;
76593;SDS011;65482;50.240;14.302;2023-03-11T08:35:13;5.60;;;3.38;;
76593;SDS011;65482;50.240;14.302;2023-03-11T08:37:40;5.82;;;3.22;;
76593;SDS011;65482;50.240;14.302;2023-03-11T08:40:05;4.32;;;3.10;;
76593;SDS011;65482;50.240;14.302;2023-03-11T08:42:32;3.63;;;2.60;;
76593;SDS011;65482;50.240;14.302;2023-03-11T08:44:58;6.72;;;2.97;;
76593;SDS011;65482;50.240;14.302;2023-03-11T08:47:24;3.95;;;2.70;;
76593;SDS011;65482;50.240;14.302;2023-03-11T08:49:49;5.15;;;2.95;;
76593;SDS011;65482;50.240;14.302;2023-03-11T08:52:15;4.40;;;3.05;;
76593;SDS011;65482;50.240;14.302;2023-03-11T08:54:41;4.75;;;2.80;;
76593;SDS011;65482;50.240;14.302;2023-03-11T08:57:07;5.45;;;2.70;;
76593;SDS011;65482;50.240;14.302;2023-03-11T08:59:32;3.50;;;2.40;;
76593;SDS011;65482;50.240;14.302;2023-03-11T09:01:58;4.20;;;2.08;;
76593;SDS011;65482;50.240;14.302;2023-03-11T09:04:24;3.63;;;2.38;;
76593;SDS011;65482;50.240;14.302;2023-03-11T09:06:50;3.30;;;2.50;;
76593;SDS011;65482;50.240;14.302;2023-03-11T09:09:16;3.40;;;2.13;;
76593;SDS011;65482;50.240;14.302;2023-03-11T09:11:45;3.78;;;2.10;;
76593;SDS011;65482;50.240;14.302;2023-03-11T09:14:11;4.55;;;2.85;;
76593;SDS011;65482;50.240;14.302;2023-03-11T09:16:38;11.02;;;2.38;;
76593;SDS011;65482;50.240;14.302;2023-03-11T09:19:04;3.05;;;2.10;;
76593;SDS011;65482;50.240;14.302;2023-03-11T09:21:32;5.15;;;2.63;;
76593;SDS011;65482;50.240;14.302;2023-03-11T09:23:59;5.50;;;2.50;;
76593;SDS011;65482;50.240;14.302;2023-03-11T09:26:25;4.60;;;2.80;;
76593;SDS011;65482;50.240;14.302;2023-03-11T09:28:50;3.92;;;2.75;;
76593;SDS011;65482;50.240;14.302;2023-03-11T09:31:17;4.47;;;2.42;;
76593;SDS011;65482;50.240;14.302;2023-03-11T09:33:43;3.40;;;2.83;;
76593;SDS011;65482;50.240;14.302;2023-03-11T09:36:12;4.15;;;2.53;;
76593;SDS011;65482;50.240;14.302;2023-03-11T09:38:39;3.25;;;2.47;;
76593;SDS011;65482;50.240;14.302;2023-03-11T09:58:09;5.10;;;3.00;;
76593;SDS011;65482;50.240;14.302;2023-03-11T10:00:37;3.65;;;2.50;;
76593;SDS011;65482;50.240;14.302;2023-03-11T10:03:05;5.20;;;2.80;;
76593;SDS011;65482;50.240;14.302;2023-03-11T10:05:41;3.38;;;2.50;;
76593;SDS011;65482;50.240;14.302;2023-03-11T10:11:03;4.30;;;2.92;;
76593;SDS011;65482;50.240;14.302;2023-03-11T10:14:00;4.72;;;2.95;;
76593;SDS011;65482;50.240;14.302;2023-03-11T10:20:02;7.30;;;4.10;;
76593;SDS011;65482;50.240;14.302;2023-03-11T10:25:16;6.47;;;2.97;;
76593;SDS011;65482;50.240;14.302;2023-03-11T10:27:48;5.50;;;3.50;;
76593;SDS011;65482;50.240;14.302;2023-03-11T10:30:30;4.93;;;3.55;;
76593;SDS011;65482;50.240;14.302;2023-03-11T10:35:43;5.65;;;3.55;;
76593;SDS011;65482;50.240;14.302;2023-03-11T10:38:14;4.53;;;3.50;;
76593;SDS011;65482;50.240;14.302;2023-03-11T10:41:03;6.13;;;3.47;;
76593;SDS011;65482;50.240;14.302;2023-03-11T10:43:38;4.68;;;3.53;;
76593;SDS011;65482;50.240;14.302;2023-03-11T10:46:16;5.80;;;3.60;;
76593;SDS011;65482;50.240;14.302;2023-03-11T10:48:44;4.90;;;3.50;;
76593;SDS011;65482;50.240;14.302;2023-03-11T10:51:14;6.72;;;4.07;;
76593;SDS011;65482;50.240;14.302;2023-03-11T10:53:47;4.28;;;3.15;;
76593;SDS011;65482;50.240;14.302;2023-03-11T10:58:55;6.03;;;3.58;;
76593;SDS011;65482;50.240;14.302;2023-03-11T11:01:22;6.05;;;3.60;;
76593;SDS011;65482;50.240;14.302;2023-03-11T11:03:52;5.22;;;3.40;;
76593;SDS011;65482;50.240;14.302;2023-03-11T11:06:24;6.90;;;4.40;;
76593;SDS011;65482;50.240;14.302;2023-03-11T11:11:42;6.97;;;3.42;;
76593;SDS011;65482;50.240;14.302;2023-03-11T11:14:25;5.10;;;3.30;;
76593;SDS011;65482;50.240;14.302;2023-03-11T11:17:14;5.20;;;3.65;;
76593;SDS011;65482;50.240;14.302;2023-03-11T11:19:47;4.95;;;3.33;;
76593;SDS011;65482;50.240;14.302;2023-03-11T11:22:15;5.07;;;3.30;;
76593;SDS011;65482;50.240;14.302;2023-03-11T11:24:43;5.00;;;3.13;;
76593;SDS011;65482;50.240;14.302;2023-03-11T11:34:59;4.47;;;3.10;;
76593;SDS011;65482;50.240;14.302;2023-03-11T11:37:28;3.78;;;3.20;;
76593;SDS011;65482;50.240;14.302;2023-03-11T11:40:04;4.50;;;3.05;;
76593;SDS011;65482;50.240;14.302;2023-03-11T11:42:43;5.55;;;3.33;;
76593;SDS011;65482;50.240;14.302;2023-03-11T11:48:01;4.40;;;3.05;;
76593;SDS011;65482;50.240;14.302;2023-03-11T11:55:59;5.63;;;3.33;;
76593;SDS011;65482;50.240;14.302;2023-03-11T11:58:25;4.70;;;3.20;;
76593;SDS011;65482;50.240;14.302;2023-03-11T12:12:43;6.07;;;3.65;;
76593;SDS011;65482;50.240;14.302;2023-03-11T12:15:41;7.13;;;3.80;;
76593;SDS011;65482;50.240;14.302;2023-03-11T12:18:20;6.43;;;4.00;;
76593;SDS011;65482;50.240;14.302;2023-03-11T12:20:55;5.18;;;3.55;;
76593;SDS011;65482;50.240;14.302;2023-03-11T12:23:36;8.77;;;4.53;;
76593;SDS011;65482;50.240;14.302;2023-03-11T12:26:23;7.47;;;3.95;;
76593;SDS011;65482;50.240;14.302;2023-03-11T12:28:53;7.30;;;4.45;;
76593;SDS011;65482;50.240;14.302;2023-03-11T12:31:25;6.25;;;4.10;;
76593;SDS011;65482;50.240;14.302;2023-03-11T12:33:59;8.50;;;5.28;;
76593;SDS011;65482;50.240;14.302;2023-03-11T12:36:32;7.80;;;4.10;;
76593;SDS011;65482;50.240;14.302;2023-03-11T12:39:01;7.45;;;4.63;;
76593;SDS011;65482;50.240;14.302;2023-03-11T12:41:31;6.85;;;4.40;;
76593;SDS011;65482;50.240;14.302;2023-03-11T12:51:59;7.47;;;5.07;;
76593;SDS011;65482;50.240;14.302;2023-03-11T12:54:40;8.38;;;5.05;;
76593;SDS011;65482;50.240;14.302;2023-03-11T13:08:14;8.05;;;4.53;;
76593;SDS011;65482;50.240;14.302;2023-03-11T13:10:42;7.50;;;5.05;;
76593;SDS011;65482;50.240;14.302;2023-03-11T13:13:28;9.43;;;5.40;;
76593;SDS011;65482;50.240;14.302;2023-03-11T13:16:34;9.18;;;5.38;;
76593;SDS011;65482;50.240;14.302;2023-03-11T13:18:44;6.43;;;4.70;;
76593;SDS011;65482;50.240;14.302;2023-03-11T13:27:27;7.70;;;4.57;;
76593;SDS011;65482;50.240;14.302;2023-03-11T13:35:49;6.60;;;5.03;;
76593;SDS011;65482;50.240;14.302;2023-03-11T13:38:37;6.82;;;4.78;;
76593;SDS011;65482;50.240;14.302;2023-03-11T13:44:01;5.15;;;3.88;;
76593;SDS011;65482;50.240;14.302;2023-03-11T13:46:36;6.40;;;4.60;;
76593;SDS011;65482;50.240;14.302;2023-03-11T13:52:00;5.38;;;4.18;;
76593;SDS011;65482;50.240;14.302;2023-03-11T13:55:14;5.95;;;4.10;;
76593;SDS011;65482;50.240;14.302;2023-03-11T13:57:27;6.60;;;4.57;;
76593;SDS011;65482;50.240;14.302;2023-03-11T13:59:56;6.15;;;4.30;;
76593;SDS011;65482;50.240;14.302;2023-03-11T14:02:27;6.28;;;4.20;;
76593;SDS011;65482;50.240;14.302;2023-03-11T14:04:54;5.85;;;4.15;;
76593;SDS011;65482;50.240;14.302;2023-03-11T14:12:36;6.05;;;4.88;;
76593;SDS011;65482;50.240;14.302;2023-03-11T14:15:06;6.20;;;4.70;;
76593;SDS011;65482;50.240;14.302;2023-03-11T14:17:33;7.65;;;4.50;;
76593;SDS011;65482;50.240;14.302;2023-03-11T14:20:09;6.85;;;4.40;;
76593;SDS011;65482;50.240;14.302;2023-03-11T14:22:39;6.03;;;4.47;;
76593;SDS011;65482;50.240;14.302;2023-03-11T14:25:12;5.75;;;4.07;;
76593;SDS011;65482;50.240;14.302;2023-03-11T14:27:55;6.13;;;3.92;;
76593;SDS011;65482;50.240;14.302;2023-03-11T14:30:24;5.05;;;3.90;;
76593;SDS011;65482;50.240;14.302;2023-03-11T14:32:59;6.57;;;3.85;;
76593;SDS011;65482;50.240;14.302;2023-03-11T14:35:30;6.05;;;4.00;;
76593;SDS011;65482;50.240;14.302;2023-03-11T14:37:58;4.95;;;3.78;;
76593;SDS011;65482;50.240;14.302;2023-03-11T14:40:31;4.50;;;3.70;;
76593;SDS011;65482;50.240;14.302;2023-03-11T14:43:05;6.70;;;3.97;;
76593;SDS011;65482;50.240;14.302;2023-03-11T14:45:32;6.72;;;3.83;;
76593;SDS011;65482;50.240;14.302;2023-03-11T14:48:07;5.75;;;3.55;;
76593;SDS011;65482;50.240;14.302;2023-03-11T14:50:38;5.97;;;3.97;;
76593;SDS011;65482;50.240;14.302;2023-03-11T14:53:08;5.60;;;3.83;;
76593;SDS011;65482;50.240;14.302;2023-03-11T14:56:03;4.95;;;3.83;;
76593;SDS011;65482;50.240;14.302;2023-03-11T14:59:04;5.32;;;3.53;;
76593;SDS011;65482;50.240;14.302;2023-03-11T15:01:33;4.78;;;3.65;;
76593;SDS011;65482;50.240;14.302;2023-03-11T15:04:12;6.03;;;4.43;;
76593;SDS011;65482;50.240;14.302;2023-03-11T15:06:56;6.80;;;4.07;;
76593;SDS011;65482;50.240;14.302;2023-03-11T15:09:22;6.38;;;4.32;;
76593;SDS011;65482;50.240;14.302;2023-03-11T15:11:54;5.47;;;3.78;;
76593;SDS011;65482;50.240;14.302;2023-03-11T15:14:25;4.95;;;3.92;;
76593;SDS011;65482;50.240;14.302;2023-03-11T15:16:51;7.65;;;4.18;;
76593;SDS011;65482;50.240;14.302;2023-03-11T15:19:29;6.97;;;4.13;;
76593;SDS011;65482;50.240;14.302;2023-03-11T15:22:05;6.80;;;4.30;;
76593;SDS011;65482;50.240;14.302;2023-03-11T15:24:52;7.55;;;4.60;;
76593;SDS011;65482;50.240;14.302;2023-03-11T15:29:59;6.13;;;3.80;;
76593;SDS011;65482;50.240;14.302;2023-03-11T15:32:39;7.47;;;3.78;;
76593;SDS011;65482;50.240;14.302;2023-03-11T15:37:32;5.45;;;3.90;;
76593;SDS011;65482;50.240;14.302;2023-03-11T15:40:20;6.07;;;4.00;;
76593;SDS011;65482;50.240;14.302;2023-03-11T15:43:53;6.72;;;3.95;;
76593;SDS011;65482;50.240;14.302;2023-03-11T15:45:51;5.53;;;3.97;;
76593;SDS011;65482;50.240;14.302;2023-03-11T15:48:18;7.72;;;3.92;;
76593;SDS011;65482;50.240;14.302;2023-03-11T15:50:51;6.10;;;3.85;;
76593;SDS011;65482;50.240;14.302;2023-03-11T15:53:19;5.10;;;3.63;;
76593;SDS011;65482;50.240;14.302;2023-03-11T15:55:45;6.40;;;4.28;;
76593;SDS011;65482;50.240;14.302;2023-03-11T15:58:13;5.95;;;4.10;;
76593;SDS011;65482;50.240;14.302;2023-03-11T16:00:54;6.70;;;4.07;;
76593;SDS011;65482;50.240;14.302;2023-03-11T16:03:21;6.03;;;3.65;;
76593;SDS011;65482;50.240;14.302;2023-03-11T16:05:48;5.53;;;3.72;;
76593;SDS011;65482;50.240;14.302;2023-03-11T16:08:14;6.18;;;4.00;;
76593;SDS011;65482;50.240;14.302;2023-03-11T16:10:41;6.47;;;3.88;;
76593;SDS011;65482;50.240;14.302;2023-03-11T16:13:14;8.48;;;4.03;;
76593;SDS011;65482;50.240;14.302;2023-03-11T16:15:40;6.83;;;4.10;;
76593;SDS011;65482;50.240;14.302;2023-03-11T16:18:06;6.28;;;4.32;;
76593;SDS011;65482;50.240;14.302;2023-03-11T16:20:35;10.52;;;4.55;;
76593;SDS011;65482;50.240;14.302;2023-03-11T16:23:26;6.00;;;3.97;;
76593;SDS011;65482;50.240;14.302;2023-03-11T16:26:00;7.88;;;4.25;;
76593;SDS011;65482;50.240;14.302;2023-03-11T16:28:27;8.35;;;4.32;;
76593;SDS011;65482;50.240;14.302;2023-03-11T16:30:53;8.40;;;5.13;;
76593;SDS011;65482;50.240;14.302;2023-03-11T16:33:19;7.55;;;4.45;;
76593;SDS011;65482;50.240;14.302;2023-03-11T16:35:45;9.25;;;4.82;;
76593;SDS011;65482;50.240;14.302;2023-03-11T16:38:10;7.97;;;5.03;;
76593;SDS011;65482;50.240;14.302;2023-03-11T16:40:36;17.42;;;7.13;;